sensor_id;sensor_type;location;lat;lon;timestamp;temperature;humidity
84335;DHT22;74512;51.190;3.198;2024-02-28T00:00:26;7.20;1.00
84335;DHT22;74512;51.190;3.198;2024-02-28T00:02:52;7.40;1.00
84335;DHT22;74512;51.190;3.198;2024-02-28T00:05:18;7.20;1.00
84335;DHT22;74512;51.190;3.198;2024-02-28T00:07:44;7.30;1.00
84335;DHT22;74512;51.190;3.198;2024-02-28T00:10:11;7.60;1.00
84335;DHT22;74512;51.190;3.198;2024-02-28T00:12:38;7.60;1.00
84335;DHT22;74512;51.190;3.198;2024-02-28T00:15:05;7.70;1.00
84335;DHT22;74512;51.190;3.198;2024-02-28T00:17:31;7.60;1.00
84335;DHT22;74512;51.190;3.198;2024-02-28T00:19:56;7.30;1.00
84335;DHT22;74512;51.190;3.198;2024-02-28T00:22:22;7.00;1.00
84335;DHT22;74512;51.190;3.198;2024-02-28T00:24:47;7.20;1.00
84335;DHT22;74512;51.190;3.198;2024-02-28T00:27:13;7.20;1.00
84335;DHT22;74512;51.190;3.198;2024-02-28T00:29:39;7.30;1.00
84335;DHT22;74512;51.190;3.198;2024-02-28T00:32:05;7.60;1.00
84335;DHT22;74512;51.190;3.198;2024-02-28T00:34:31;7.70;1.00
84335;DHT22;74512;51.190;3.198;2024-02-28T00:36:56;7.40;1.00
84335;DHT22;74512;51.190;3.198;2024-02-28T00:39:22;7.30;1.00
84335;DHT22;74512;51.190;3.198;2024-02-28T00:41:48;7.10;1.00
84335;DHT22;74512;51.190;3.198;2024-02-28T00:44:14;6.90;1.00
84335;DHT22;74512;51.190;3.198;2024-02-28T00:46:40;6.90;1.00
84335;DHT22;74512;51.190;3.198;2024-02-28T00:49:05;7.10;1.00
84335;DHT22;74512;51.190;3.198;2024-02-28T00:51:31;7.60;1.00
84335;DHT22;74512;51.190;3.198;2024-02-28T00:53:56;7.70;1.00
84335;DHT22;74512;51.190;3.198;2024-02-28T00:56:22;7.90;1.00
84335;DHT22;74512;51.190;3.198;2024-02-28T00:58:49;8.10;1.00
84335;DHT22;74512;51.190;3.198;2024-02-28T01:01:15;8.10;1.00
84335;DHT22;74512;51.190;3.198;2024-02-28T01:03:41;8.10;1.00
84335;DHT22;74512;51.190;3.198;2024-02-28T01:06:06;8.20;1.00
84335;DHT22;74512;51.190;3.198;2024-02-28T01:08:32;8.30;1.00
84335;DHT22;74512;51.190;3.198;2024-02-28T01:10:58;8.40;1.00
84335;DHT22;74512;51.190;3.198;2024-02-28T01:13:24;8.50;1.00
84335;DHT22;74512;51.190;3.198;2024-02-28T01:15:50;8.60;1.00
84335;DHT22;74512;51.190;3.198;2024-02-28T01:18:15;8.60;1.00
84335;DHT22;74512;51.190;3.198;2024-02-28T01:20:41;8.70;1.00
84335;DHT22;74512;51.190;3.198;2024-02-28T01:23:07;8.80;1.00
84335;DHT22;74512;51.190;3.198;2024-02-28T01:25:32;8.70;1.00
84335;DHT22;74512;51.190;3.198;2024-02-28T01:27:58;8.70;1.00
84335;DHT22;74512;51.190;3.198;2024-02-28T01:30:24;8.70;1.00
84335;DHT22;74512;51.190;3.198;2024-02-28T01:32:50;8.70;1.00
84335;DHT22;74512;51.190;3.198;2024-02-28T01:35:16;8.70;1.00
84335;DHT22;74512;51.190;3.198;2024-02-28T01:37:41;8.70;1.00
84335;DHT22;74512;51.190;3.198;2024-02-28T01:40:07;8.70;1.00
84335;DHT22;74512;51.190;3.198;2024-02-28T01:42:33;8.70;1.00
84335;DHT22;74512;51.190;3.198;2024-02-28T01:44:59;8.60;1.00
84335;DHT22;74512;51.190;3.198;2024-02-28T01:47:24;8.70;1.00
84335;DHT22;74512;51.190;3.198;2024-02-28T01:49:50;8.80;1.00
84335;DHT22;74512;51.190;3.198;2024-02-28T01:52:17;8.70;1.00
84335;DHT22;74512;51.190;3.198;2024-02-28T01:54:43;8.70;1.00
84335;DHT22;74512;51.190;3.198;2024-02-28T01:57:09;8.80;1.00
84335;DHT22;74512;51.190;3.198;2024-02-28T01:59:36;8.80;1.00
84335;DHT22;74512;51.190;3.198;2024-02-28T02:02:02;8.70;1.00
84335;DHT22;74512;51.190;3.198;2024-02-28T02:04:28;8.80;1.00
84335;DHT22;74512;51.190;3.198;2024-02-28T02:06:55;8.80;1.00
84335;DHT22;74512;51.190;3.198;2024-02-28T02:09:24;8.80;1.00
84335;DHT22;74512;51.190;3.198;2024-02-28T02:11:49;8.80;1.00
84335;DHT22;74512;51.190;3.198;2024-02-28T02:14:15;8.80;1.00
84335;DHT22;74512;51.190;3.198;2024-02-28T02:16:41;8.80;1.00
84335;DHT22;74512;51.190;3.198;2024-02-28T02:19:08;8.80;1.00
84335;DHT22;74512;51.190;3.198;2024-02-28T02:21:39;8.80;1.00
84335;DHT22;74512;51.190;3.198;2024-02-28T02:24:06;8.80;1.00
84335;DHT22;74512;51.190;3.198;2024-02-28T02:26:32;8.90;1.00
84335;DHT22;74512;51.190;3.198;2024-02-28T02:28:57;8.90;1.00
84335;DHT22;74512;51.190;3.198;2024-02-28T02:31:23;8.60;1.00
84335;DHT22;74512;51.190;3.198;2024-02-28T02:33:49;8.60;1.00
84335;DHT22;74512;51.190;3.198;2024-02-28T02:36:14;8.70;1.00
84335;DHT22;74512;51.190;3.198;2024-02-28T02:38:40;8.80;1.00
84335;DHT22;74512;51.190;3.198;2024-02-28T02:41:06;8.90;1.00
84335;DHT22;74512;51.190;3.198;2024-02-28T02:43:31;8.80;1.00
84335;DHT22;74512;51.190;3.198;2024-02-28T02:45:57;8.70;1.00
84335;DHT22;74512;51.190;3.198;2024-02-28T02:48:23;8.60;1.00
84335;DHT22;74512;51.190;3.198;2024-02-28T02:50:48;8.70;1.00
84335;DHT22;74512;51.190;3.198;2024-02-28T02:53:14;8.80;1.00
84335;DHT22;74512;51.190;3.198;2024-02-28T02:55:39;8.80;1.00
84335;DHT22;74512;51.190;3.198;2024-02-28T02:58:05;8.70;1.00
84335;DHT22;74512;51.190;3.198;2024-02-28T03:00:31;8.70;1.00
84335;DHT22;74512;51.190;3.198;2024-02-28T03:02:56;8.80;1.00
84335;DHT22;74512;51.190;3.198;2024-02-28T03:05:22;8.60;1.00
84335;DHT22;74512;51.190;3.198;2024-02-28T03:07:48;8.60;1.00
84335;DHT22;74512;51.190;3.198;2024-02-28T03:10:13;8.50;1.00
84335;DHT22;74512;51.190;3.198;2024-02-28T03:12:39;8.20;1.00
84335;DHT22;74512;51.190;3.198;2024-02-28T03:15:05;8.20;1.00
84335;DHT22;74512;51.190;3.198;2024-02-28T03:17:31;8.00;1.00
84335;DHT22;74512;51.190;3.198;2024-02-28T03:19:56;8.00;1.00
84335;DHT22;74512;51.190;3.198;2024-02-28T03:22:22;7.90;1.00
84335;DHT22;74512;51.190;3.198;2024-02-28T03:24:48;8.00;1.00
84335;DHT22;74512;51.190;3.198;2024-02-28T03:27:14;8.10;1.00
84335;DHT22;74512;51.190;3.198;2024-02-28T03:29:40;8.10;1.00
84335;DHT22;74512;51.190;3.198;2024-02-28T03:32:06;8.00;1.00
84335;DHT22;74512;51.190;3.198;2024-02-28T03:34:31;7.90;1.00
84335;DHT22;74512;51.190;3.198;2024-02-28T03:36:57;7.90;1.00
84335;DHT22;74512;51.190;3.198;2024-02-28T03:39:23;8.10;1.00
84335;DHT22;74512;51.190;3.198;2024-02-28T03:41:48;8.20;1.00
84335;DHT22;74512;51.190;3.198;2024-02-28T03:44:14;8.30;1.00
84335;DHT22;74512;51.190;3.198;2024-02-28T03:46:40;8.10;1.00
84335;DHT22;74512;51.190;3.198;2024-02-28T03:49:05;8.00;1.00
84335;DHT22;74512;51.190;3.198;2024-02-28T03:51:31;7.80;1.00
84335;DHT22;74512;51.190;3.198;2024-02-28T03:53:57;7.80;1.00
84335;DHT22;74512;51.190;3.198;2024-02-28T03:56:26;7.50;1.00
84335;DHT22;74512;51.190;3.198;2024-02-28T03:58:52;7.60;1.00
84335;DHT22;74512;51.190;3.198;2024-02-28T04:01:18;7.50;1.00
84335;DHT22;74512;51.190;3.198;2024-02-28T04:03:43;7.60;1.00
84335;DHT22;74512;51.190;3.198;2024-02-28T04:06:10;7.50;1.00
84335;DHT22;74512;51.190;3.198;2024-02-28T04:08:35;7.60;1.00
84335;DHT22;74512;51.190;3.198;2024-02-28T04:11:01;7.60;1.00
84335;DHT22;74512;51.190;3.198;2024-02-28T04:13:27;7.90;1.00
84335;DHT22;74512;51.190;3.198;2024-02-28T04:15:52;7.90;1.00
84335;DHT22;74512;51.190;3.198;2024-02-28T04:18:18;7.80;1.00
84335;DHT22;74512;51.190;3.198;2024-02-28T04:20:44;8.00;1.00
84335;DHT22;74512;51.190;3.198;2024-02-28T04:23:09;8.10;1.00
84335;DHT22;74512;51.190;3.198;2024-02-28T04:25:35;8.30;1.00
84335;DHT22;74512;51.190;3.198;2024-02-28T04:28:02;8.40;1.00
84335;DHT22;74512;51.190;3.198;2024-02-28T04:30:28;8.20;1.00
84335;DHT22;74512;51.190;3.198;2024-02-28T04:32:53;8.40;1.00
84335;DHT22;74512;51.190;3.198;2024-02-28T04:35:19;8.50;1.00
84335;DHT22;74512;51.190;3.198;2024-02-28T04:37:46;8.70;1.00
84335;DHT22;74512;51.190;3.198;2024-02-28T04:40:12;8.70;1.00
84335;DHT22;74512;51.190;3.198;2024-02-28T04:42:38;8.70;1.00
84335;DHT22;74512;51.190;3.198;2024-02-28T04:45:04;8.70;1.00
84335;DHT22;74512;51.190;3.198;2024-02-28T04:47:30;8.80;1.00
84335;DHT22;74512;51.190;3.198;2024-02-28T04:49:56;8.90;1.00
84335;DHT22;74512;51.190;3.198;2024-02-28T04:52:22;8.90;1.00
84335;DHT22;74512;51.190;3.198;2024-02-28T04:54:48;8.90;1.00
84335;DHT22;74512;51.190;3.198;2024-02-28T04:57:14;8.90;1.00
84335;DHT22;74512;51.190;3.198;2024-02-28T04:59:41;8.60;1.00
84335;DHT22;74512;51.190;3.198;2024-02-28T05:02:07;8.40;1.00
84335;DHT22;74512;51.190;3.198;2024-02-28T05:04:33;8.10;1.00
84335;DHT22;74512;51.190;3.198;2024-02-28T05:06:58;8.00;1.00
84335;DHT22;74512;51.190;3.198;2024-02-28T05:09:24;8.10;1.00
84335;DHT22;74512;51.190;3.198;2024-02-28T05:11:49;8.20;1.00
84335;DHT22;74512;51.190;3.198;2024-02-28T05:14:15;8.10;1.00
84335;DHT22;74512;51.190;3.198;2024-02-28T05:16:41;8.10;1.00
84335;DHT22;74512;51.190;3.198;2024-02-28T05:19:06;7.90;1.00
84335;DHT22;74512;51.190;3.198;2024-02-28T05:21:39;7.90;1.00
84335;DHT22;74512;51.190;3.198;2024-02-28T05:24:05;7.80;1.00
84335;DHT22;74512;51.190;3.198;2024-02-28T05:26:30;7.70;1.00
84335;DHT22;74512;51.190;3.198;2024-02-28T05:28:59;7.70;1.00
84335;DHT22;74512;51.190;3.198;2024-02-28T05:31:26;7.70;1.00
84335;DHT22;74512;51.190;3.198;2024-02-28T05:33:53;7.80;1.00
84335;DHT22;74512;51.190;3.198;2024-02-28T05:36:27;7.80;1.00
84335;DHT22;74512;51.190;3.198;2024-02-28T05:38:53;7.80;1.00
84335;DHT22;74512;51.190;3.198;2024-02-28T05:41:19;7.90;1.00
84335;DHT22;74512;51.190;3.198;2024-02-28T05:43:46;7.60;1.00
84335;DHT22;74512;51.190;3.198;2024-02-28T05:46:11;7.70;1.00
84335;DHT22;74512;51.190;3.198;2024-02-28T05:48:37;7.90;1.00
84335;DHT22;74512;51.190;3.198;2024-02-28T05:51:03;8.00;1.00
84335;DHT22;74512;51.190;3.198;2024-02-28T05:53:29;8.10;1.00
84335;DHT22;74512;51.190;3.198;2024-02-28T05:56:04;8.10;1.00
84335;DHT22;74512;51.190;3.198;2024-02-28T05:58:30;8.20;1.00
84335;DHT22;74512;51.190;3.198;2024-02-28T06:00:56;8.00;1.00
84335;DHT22;74512;51.190;3.198;2024-02-28T06:03:22;8.00;1.00
84335;DHT22;74512;51.190;3.198;2024-02-28T06:05:47;7.80;1.00
84335;DHT22;74512;51.190;3.198;2024-02-28T06:08:14;7.90;1.00
84335;DHT22;74512;51.190;3.198;2024-02-28T06:10:39;7.90;1.00
84335;DHT22;74512;51.190;3.198;2024-02-28T06:13:08;7.90;1.00
84335;DHT22;74512;51.190;3.198;2024-02-28T06:15:33;7.90;1.00
84335;DHT22;74512;51.190;3.198;2024-02-28T06:17:59;7.90;1.00
84335;DHT22;74512;51.190;3.198;2024-02-28T06:20:26;8.00;1.00
84335;DHT22;74512;51.190;3.198;2024-02-28T06:22:52;7.90;1.00
84335;DHT22;74512;51.190;3.198;2024-02-28T06:25:18;7.90;1.00
84335;DHT22;74512;51.190;3.198;2024-02-28T06:27:45;7.90;1.00
84335;DHT22;74512;51.190;3.198;2024-02-28T06:30:11;8.10;1.00
84335;DHT22;74512;51.190;3.198;2024-02-28T06:32:40;8.10;1.00
84335;DHT22;74512;51.190;3.198;2024-02-28T06:35:06;7.90;1.00
84335;DHT22;74512;51.190;3.198;2024-02-28T06:37:33;8.20;1.00
84335;DHT22;74512;51.190;3.198;2024-02-28T06:39:59;8.10;1.00
84335;DHT22;74512;51.190;3.198;2024-02-28T06:42:24;8.10;1.00
84335;DHT22;74512;51.190;3.198;2024-02-28T06:44:50;8.10;1.00
84335;DHT22;74512;51.190;3.198;2024-02-28T06:47:16;8.00;1.00
84335;DHT22;74512;51.190;3.198;2024-02-28T06:49:42;8.20;1.00
84335;DHT22;74512;51.190;3.198;2024-02-28T06:52:07;8.40;1.00
84335;DHT22;74512;51.190;3.198;2024-02-28T06:54:33;8.50;1.00
84335;DHT22;74512;51.190;3.198;2024-02-28T06:56:58;8.70;1.00
84335;DHT22;74512;51.190;3.198;2024-02-28T06:59:24;8.80;1.00
84335;DHT22;74512;51.190;3.198;2024-02-28T07:01:50;8.70;1.00
84335;DHT22;74512;51.190;3.198;2024-02-28T07:04:15;8.70;1.00
84335;DHT22;74512;51.190;3.198;2024-02-28T07:06:41;8.60;1.00
84335;DHT22;74512;51.190;3.198;2024-02-28T07:09:11;8.70;1.00
84335;DHT22;74512;51.190;3.198;2024-02-28T07:11:38;8.60;1.00
84335;DHT22;74512;51.190;3.198;2024-02-28T07:14:04;8.70;1.00
84335;DHT22;74512;51.190;3.198;2024-02-28T07:16:30;8.60;1.00
84335;DHT22;74512;51.190;3.198;2024-02-28T07:18:59;8.50;1.00
84335;DHT22;74512;51.190;3.198;2024-02-28T07:21:25;8.30;1.00
84335;DHT22;74512;51.190;3.198;2024-02-28T07:23:51;8.20;1.00
84335;DHT22;74512;51.190;3.198;2024-02-28T07:26:17;8.10;1.00
84335;DHT22;74512;51.190;3.198;2024-02-28T07:28:43;8.20;1.00
84335;DHT22;74512;51.190;3.198;2024-02-28T07:31:18;8.30;1.00
84335;DHT22;74512;51.190;3.198;2024-02-28T07:33:44;8.50;1.00
84335;DHT22;74512;51.190;3.198;2024-02-28T07:36:11;8.50;1.00
84335;DHT22;74512;51.190;3.198;2024-02-28T07:38:37;8.60;1.00
84335;DHT22;74512;51.190;3.198;2024-02-28T07:41:03;8.50;1.00
84335;DHT22;74512;51.190;3.198;2024-02-28T07:43:29;8.50;1.00
84335;DHT22;74512;51.190;3.198;2024-02-28T07:45:58;8.50;1.00
84335;DHT22;74512;51.190;3.198;2024-02-28T07:48:24;8.80;1.00
84335;DHT22;74512;51.190;3.198;2024-02-28T07:50:50;8.70;1.00
84335;DHT22;74512;51.190;3.198;2024-02-28T07:53:17;8.80;1.00
84335;DHT22;74512;51.190;3.198;2024-02-28T07:55:42;8.60;1.00
84335;DHT22;74512;51.190;3.198;2024-02-28T07:58:08;8.60;1.00
84335;DHT22;74512;51.190;3.198;2024-02-28T08:00:35;8.70;1.00
84335;DHT22;74512;51.190;3.198;2024-02-28T08:03:00;8.60;1.00
84335;DHT22;74512;51.190;3.198;2024-02-28T08:05:26;8.50;1.00
84335;DHT22;74512;51.190;3.198;2024-02-28T08:07:51;8.30;1.00
84335;DHT22;74512;51.190;3.198;2024-02-28T08:10:17;8.30;1.00
84335;DHT22;74512;51.190;3.198;2024-02-28T08:12:43;8.20;1.00
84335;DHT22;74512;51.190;3.198;2024-02-28T08:15:09;8.30;1.00
84335;DHT22;74512;51.190;3.198;2024-02-28T08:17:35;8.60;1.00
84335;DHT22;74512;51.190;3.198;2024-02-28T08:20:05;8.50;1.00
84335;DHT22;74512;51.190;3.198;2024-02-28T08:22:32;8.70;1.00
84335;DHT22;74512;51.190;3.198;2024-02-28T08:24:57;8.70;1.00
84335;DHT22;74512;51.190;3.198;2024-02-28T08:27:23;8.60;1.00
84335;DHT22;74512;51.190;3.198;2024-02-28T08:29:49;8.70;1.00
84335;DHT22;74512;51.190;3.198;2024-02-28T08:32:15;8.70;1.00
84335;DHT22;74512;51.190;3.198;2024-02-28T08:34:44;8.60;1.00
84335;DHT22;74512;51.190;3.198;2024-02-28T08:37:12;8.70;1.00
84335;DHT22;74512;51.190;3.198;2024-02-28T08:39:37;8.90;1.00
84335;DHT22;74512;51.190;3.198;2024-02-28T08:42:03;8.80;1.00
84335;DHT22;74512;51.190;3.198;2024-02-28T08:44:29;8.80;1.00
84335;DHT22;74512;51.190;3.198;2024-02-28T08:46:54;8.70;1.00
84335;DHT22;74512;51.190;3.198;2024-02-28T08:49:20;8.80;1.00
84335;DHT22;74512;51.190;3.198;2024-02-28T08:51:46;8.80;1.00
84335;DHT22;74512;51.190;3.198;2024-02-28T08:54:11;8.90;1.00
84335;DHT22;74512;51.190;3.198;2024-02-28T08:56:37;8.90;1.00
84335;DHT22;74512;51.190;3.198;2024-02-28T08:59:03;8.90;1.00
84335;DHT22;74512;51.190;3.198;2024-02-28T09:01:29;9.00;1.00
84335;DHT22;74512;51.190;3.198;2024-02-28T09:03:54;9.10;1.00
84335;DHT22;74512;51.190;3.198;2024-02-28T09:06:20;9.20;1.00
84335;DHT22;74512;51.190;3.198;2024-02-28T09:08:45;9.20;1.00
84335;DHT22;74512;51.190;3.198;2024-02-28T09:11:11;9.30;1.00
84335;DHT22;74512;51.190;3.198;2024-02-28T09:13:38;9.30;1.00
84335;DHT22;74512;51.190;3.198;2024-02-28T09:16:04;9.20;1.00
84335;DHT22;74512;51.190;3.198;2024-02-28T09:18:29;9.10;1.00
84335;DHT22;74512;51.190;3.198;2024-02-28T09:20:55;9.20;1.00
84335;DHT22;74512;51.190;3.198;2024-02-28T09:23:21;9.30;1.00
84335;DHT22;74512;51.190;3.198;2024-02-28T09:25:46;9.30;1.00
84335;DHT22;74512;51.190;3.198;2024-02-28T09:28:12;9.30;1.00
84335;DHT22;74512;51.190;3.198;2024-02-28T09:30:41;9.40;1.00
84335;DHT22;74512;51.190;3.198;2024-02-28T09:33:08;9.40;1.00
84335;DHT22;74512;51.190;3.198;2024-02-28T09:35:35;9.40;1.00
84335;DHT22;74512;51.190;3.198;2024-02-28T09:38:02;9.20;1.00
84335;DHT22;74512;51.190;3.198;2024-02-28T09:40:27;9.10;1.00
84335;DHT22;74512;51.190;3.198;2024-02-28T09:43:00;9.10;1.00
84335;DHT22;74512;51.190;3.198;2024-02-28T09:45:27;9.10;1.00
84335;DHT22;74512;51.190;3.198;2024-02-28T09:47:55;9.30;1.00
84335;DHT22;74512;51.190;3.198;2024-02-28T09:50:20;9.40;1.00
84335;DHT22;74512;51.190;3.198;2024-02-28T09:52:47;9.40;1.00
84335;DHT22;74512;51.190;3.198;2024-02-28T09:55:13;9.30;1.00
84335;DHT22;74512;51.190;3.198;2024-02-28T09:57:39;9.30;1.00
84335;DHT22;74512;51.190;3.198;2024-02-28T10:00:06;9.40;1.00
84335;DHT22;74512;51.190;3.198;2024-02-28T10:02:32;9.60;1.00
84335;DHT22;74512;51.190;3.198;2024-02-28T10:04:59;9.60;1.00
84335;DHT22;74512;51.190;3.198;2024-02-28T10:07:26;9.60;1.00
84335;DHT22;74512;51.190;3.198;2024-02-28T10:09:52;9.60;1.00
84335;DHT22;74512;51.190;3.198;2024-02-28T10:12:18;9.50;1.00
84335;DHT22;74512;51.190;3.198;2024-02-28T10:14:45;9.50;1.00
84335;DHT22;74512;51.190;3.198;2024-02-28T10:17:11;9.50;1.00
84335;DHT22;74512;51.190;3.198;2024-02-28T10:19:37;9.40;1.00
84335;DHT22;74512;51.190;3.198;2024-02-28T10:22:04;9.60;1.00
84335;DHT22;74512;51.190;3.198;2024-02-28T10:24:29;9.70;1.00
84335;DHT22;74512;51.190;3.198;2024-02-28T10:26:55;9.70;1.00
84335;DHT22;74512;51.190;3.198;2024-02-28T10:29:24;9.80;1.00
84335;DHT22;74512;51.190;3.198;2024-02-28T10:31:55;9.80;1.00
84335;DHT22;74512;51.190;3.198;2024-02-28T10:34:21;9.60;1.00
84335;DHT22;74512;51.190;3.198;2024-02-28T10:36:47;9.70;1.00
84335;DHT22;74512;51.190;3.198;2024-02-28T10:39:13;9.50;1.00
84335;DHT22;74512;51.190;3.198;2024-02-28T10:41:39;9.50;1.00
84335;DHT22;74512;51.190;3.198;2024-02-28T10:44:05;9.60;1.00
84335;DHT22;74512;51.190;3.198;2024-02-28T10:46:31;9.60;1.00
84335;DHT22;74512;51.190;3.198;2024-02-28T10:48:57;9.60;1.00
84335;DHT22;74512;51.190;3.198;2024-02-28T10:51:24;9.70;1.00
84335;DHT22;74512;51.190;3.198;2024-02-28T10:54:13;9.70;1.00
84335;DHT22;74512;51.190;3.198;2024-02-28T10:56:40;9.70;1.00
84335;DHT22;74512;51.190;3.198;2024-02-28T10:59:07;9.70;1.00
84335;DHT22;74512;51.190;3.198;2024-02-28T11:01:38;9.80;1.00
84335;DHT22;74512;51.190;3.198;2024-02-28T11:04:05;9.90;1.00
84335;DHT22;74512;51.190;3.198;2024-02-28T11:06:31;9.80;1.00
84335;DHT22;74512;51.190;3.198;2024-02-28T11:08:59;9.80;1.00
84335;DHT22;74512;51.190;3.198;2024-02-28T11:11:29;9.80;1.00
84335;DHT22;74512;51.190;3.198;2024-02-28T11:13:56;9.80;1.00
84335;DHT22;74512;51.190;3.198;2024-02-28T11:16:32;9.60;1.00
84335;DHT22;74512;51.190;3.198;2024-02-28T11:18:59;9.60;1.00
84335;DHT22;74512;51.190;3.198;2024-02-28T11:21:26;9.60;1.00
84335;DHT22;74512;51.190;3.198;2024-02-28T11:23:56;9.80;1.00
84335;DHT22;74512;51.190;3.198;2024-02-28T11:26:22;9.90;1.00
84335;DHT22;74512;51.190;3.198;2024-02-28T11:28:48;9.80;1.00
84335;DHT22;74512;51.190;3.198;2024-02-28T11:31:14;9.80;1.00
84335;DHT22;74512;51.190;3.198;2024-02-28T11:33:40;9.90;1.00
84335;DHT22;74512;51.190;3.198;2024-02-28T11:36:06;9.70;1.00
84335;DHT22;74512;51.190;3.198;2024-02-28T11:38:35;9.80;1.00
84335;DHT22;74512;51.190;3.198;2024-02-28T11:41:03;9.90;1.00
84335;DHT22;74512;51.190;3.198;2024-02-28T11:43:31;10.10;1.00
84335;DHT22;74512;51.190;3.198;2024-02-28T11:45:58;10.20;1.00
84335;DHT22;74512;51.190;3.198;2024-02-28T11:48:25;10.10;1.00
84335;DHT22;74512;51.190;3.198;2024-02-28T11:50:51;10.10;1.00
84335;DHT22;74512;51.190;3.198;2024-02-28T11:53:18;10.10;1.00
84335;DHT22;74512;51.190;3.198;2024-02-28T11:55:45;10.10;1.00
84335;DHT22;74512;51.190;3.198;2024-02-28T11:58:13;10.00;1.00
84335;DHT22;74512;51.190;3.198;2024-02-28T12:00:51;9.80;1.00
84335;DHT22;74512;51.190;3.198;2024-02-28T12:03:21;9.90;1.00
84335;DHT22;74512;51.190;3.198;2024-02-28T12:05:47;10.00;1.00
84335;DHT22;74512;51.190;3.198;2024-02-28T12:08:13;10.00;1.00
84335;DHT22;74512;51.190;3.198;2024-02-28T12:10:38;10.00;1.00
84335;DHT22;74512;51.190;3.198;2024-02-28T12:13:05;10.00;1.00
84335;DHT22;74512;51.190;3.198;2024-02-28T12:15:31;10.10;1.00
84335;DHT22;74512;51.190;3.198;2024-02-28T12:17:57;10.20;1.00
84335;DHT22;74512;51.190;3.198;2024-02-28T12:20:25;10.10;1.00
84335;DHT22;74512;51.190;3.198;2024-02-28T12:22:51;10.20;1.00
84335;DHT22;74512;51.190;3.198;2024-02-28T12:25:17;10.20;1.00
84335;DHT22;74512;51.190;3.198;2024-02-28T12:27:42;10.20;1.00
84335;DHT22;74512;51.190;3.198;2024-02-28T12:30:08;10.30;1.00
84335;DHT22;74512;51.190;3.198;2024-02-28T12:32:34;10.30;1.00
84335;DHT22;74512;51.190;3.198;2024-02-28T12:35:00;10.30;1.00
84335;DHT22;74512;51.190;3.198;2024-02-28T12:37:26;10.20;1.00
84335;DHT22;74512;51.190;3.198;2024-02-28T12:39:51;10.10;1.00
84335;DHT22;74512;51.190;3.198;2024-02-28T12:42:18;10.10;1.00
84335;DHT22;74512;51.190;3.198;2024-02-28T12:44:43;10.20;1.00
84335;DHT22;74512;51.190;3.198;2024-02-28T12:47:12;10.30;1.00
84335;DHT22;74512;51.190;3.198;2024-02-28T12:49:38;10.40;1.00
84335;DHT22;74512;51.190;3.198;2024-02-28T12:52:04;10.50;1.00
84335;DHT22;74512;51.190;3.198;2024-02-28T12:54:30;10.60;1.00
84335;DHT22;74512;51.190;3.198;2024-02-28T12:56:56;10.60;1.00
84335;DHT22;74512;51.190;3.198;2024-02-28T12:59:21;10.60;1.00
84335;DHT22;74512;51.190;3.198;2024-02-28T13:01:47;10.60;1.00
84335;DHT22;74512;51.190;3.198;2024-02-28T13:04:13;10.70;1.00
84335;DHT22;74512;51.190;3.198;2024-02-28T13:06:39;10.70;1.00
84335;DHT22;74512;51.190;3.198;2024-02-28T13:09:05;10.80;1.00
84335;DHT22;74512;51.190;3.198;2024-02-28T13:11:37;10.80;1.00
84335;DHT22;74512;51.190;3.198;2024-02-28T13:14:03;10.80;1.00
84335;DHT22;74512;51.190;3.198;2024-02-28T13:16:28;10.90;1.00
84335;DHT22;74512;51.190;3.198;2024-02-28T13:18:54;10.80;1.00
84335;DHT22;74512;51.190;3.198;2024-02-28T13:21:20;11.00;1.00
84335;DHT22;74512;51.190;3.198;2024-02-28T13:23:45;11.20;1.00
84335;DHT22;74512;51.190;3.198;2024-02-28T13:26:11;11.00;1.00
84335;DHT22;74512;51.190;3.198;2024-02-28T13:28:43;11.00;1.00
84335;DHT22;74512;51.190;3.198;2024-02-28T13:31:09;10.90;1.00
84335;DHT22;74512;51.190;3.198;2024-02-28T13:33:35;10.70;1.00
84335;DHT22;74512;51.190;3.198;2024-02-28T13:36:03;10.70;1.00
84335;DHT22;74512;51.190;3.198;2024-02-28T13:38:28;10.80;1.00
84335;DHT22;74512;51.190;3.198;2024-02-28T13:40:55;10.90;1.00
84335;DHT22;74512;51.190;3.198;2024-02-28T13:43:22;10.80;1.00
84335;DHT22;74512;51.190;3.198;2024-02-28T13:45:51;10.80;1.00
84335;DHT22;74512;51.190;3.198;2024-02-28T13:48:21;10.70;1.00
84335;DHT22;74512;51.190;3.198;2024-02-28T13:50:48;10.80;1.00
84335;DHT22;74512;51.190;3.198;2024-02-28T13:53:15;10.80;1.00
84335;DHT22;74512;51.190;3.198;2024-02-28T13:55:43;10.70;1.00
84335;DHT22;74512;51.190;3.198;2024-02-28T13:58:14;10.70;1.00
84335;DHT22;74512;51.190;3.198;2024-02-28T14:00:46;10.70;1.00
84335;DHT22;74512;51.190;3.198;2024-02-28T14:03:15;10.80;1.00
84335;DHT22;74512;51.190;3.198;2024-02-28T14:05:41;10.80;1.00
84335;DHT22;74512;51.190;3.198;2024-02-28T14:08:13;10.90;1.00
84335;DHT22;74512;51.190;3.198;2024-02-28T14:10:44;10.90;1.00
84335;DHT22;74512;51.190;3.198;2024-02-28T14:13:12;10.90;1.00
84335;DHT22;74512;51.190;3.198;2024-02-28T14:15:38;10.90;1.00
84335;DHT22;74512;51.190;3.198;2024-02-28T14:18:07;10.90;1.00
84335;DHT22;74512;51.190;3.198;2024-02-28T14:20:34;11.00;1.00
84335;DHT22;74512;51.190;3.198;2024-02-28T14:23:00;11.00;1.00
84335;DHT22;74512;51.190;3.198;2024-02-28T14:25:25;10.90;1.00
84335;DHT22;74512;51.190;3.198;2024-02-28T14:27:52;10.90;1.00
84335;DHT22;74512;51.190;3.198;2024-02-28T14:30:18;11.00;1.00
84335;DHT22;74512;51.190;3.198;2024-02-28T14:32:44;10.80;1.00
84335;DHT22;74512;51.190;3.198;2024-02-28T14:35:10;10.80;1.00
84335;DHT22;74512;51.190;3.198;2024-02-28T14:37:37;10.90;1.00
84335;DHT22;74512;51.190;3.198;2024-02-28T14:40:04;10.90;1.00
84335;DHT22;74512;51.190;3.198;2024-02-28T14:42:38;11.00;1.00
84335;DHT22;74512;51.190;3.198;2024-02-28T14:45:06;11.10;1.00
84335;DHT22;74512;51.190;3.198;2024-02-28T14:47:32;10.90;1.00
84335;DHT22;74512;51.190;3.198;2024-02-28T14:49:58;10.90;1.00
84335;DHT22;74512;51.190;3.198;2024-02-28T14:52:23;10.90;1.00
84335;DHT22;74512;51.190;3.198;2024-02-28T14:54:50;11.00;1.00
84335;DHT22;74512;51.190;3.198;2024-02-28T14:57:16;11.00;1.00
84335;DHT22;74512;51.190;3.198;2024-02-28T14:59:41;11.00;1.00
84335;DHT22;74512;51.190;3.198;2024-02-28T15:02:09;11.10;1.00
84335;DHT22;74512;51.190;3.198;2024-02-28T15:04:36;11.00;1.00
84335;DHT22;74512;51.190;3.198;2024-02-28T15:07:02;11.00;1.00
84335;DHT22;74512;51.190;3.198;2024-02-28T15:09:28;10.90;1.00
84335;DHT22;74512;51.190;3.198;2024-02-28T15:11:54;10.90;1.00
84335;DHT22;74512;51.190;3.198;2024-02-28T15:14:20;10.80;1.00
84335;DHT22;74512;51.190;3.198;2024-02-28T15:16:47;10.80;1.00
84335;DHT22;74512;51.190;3.198;2024-02-28T15:19:12;10.90;1.00
84335;DHT22;74512;51.190;3.198;2024-02-28T15:21:38;10.80;1.00
84335;DHT22;74512;51.190;3.198;2024-02-28T15:24:04;10.90;1.00
84335;DHT22;74512;51.190;3.198;2024-02-28T15:26:30;11.00;1.00
84335;DHT22;74512;51.190;3.198;2024-02-28T15:28:56;11.00;1.00
84335;DHT22;74512;51.190;3.198;2024-02-28T15:31:22;11.00;1.00
84335;DHT22;74512;51.190;3.198;2024-02-28T15:33:48;11.00;1.00
84335;DHT22;74512;51.190;3.198;2024-02-28T15:36:14;11.00;1.00
84335;DHT22;74512;51.190;3.198;2024-02-28T15:38:40;11.00;1.00
84335;DHT22;74512;51.190;3.198;2024-02-28T15:41:06;11.00;1.00
84335;DHT22;74512;51.190;3.198;2024-02-28T15:43:33;11.00;1.00
84335;DHT22;74512;51.190;3.198;2024-02-28T15:46:00;10.90;1.00
84335;DHT22;74512;51.190;3.198;2024-02-28T15:48:26;10.90;1.00
84335;DHT22;74512;51.190;3.198;2024-02-28T15:50:53;10.90;1.00